Time;durP1;ratioP1;P1;durP2;ratioP2;P2;SDS_P1;SDS_P2;PMS_P1;PMS_P2;Temp;Humidity;BMP_temperature;BMP_pressure;BME280_temperature;BME280_humidity;BME280_pressure;Samples;Min_cycle;Max_cycle;Signal;HPM_P1;HPM_P2
2023/05/16 00:01:43;;;;;;;40.45;27.60;;;;;;;12.34;100.00;100145.31;5076182;28;20051;-85
2023/05/16 00:04:10;;;;;;;37.30;26.20;;;;;;;12.35;100.00;100155.00;5077136;28;20049;-88
2023/05/16 00:06:37;;;;;;;38.65;27.65;;;;;;;12.37;100.00;100153.13;5056590;28;20067;-86
2023/05/16 00:09:04;;;;;;;36.28;26.45;;;;;;;12.37;100.00;100147.81;5065964;28;20055;-86
2023/05/16 00:11:39;;;;;;;39.58;27.08;;;;;;;12.41;100.00;100151.16;5083652;28;20074;-86
2023/05/16 00:14:07;;;;;;;39.58;26.60;;;;;;;12.39;100.00;100148.56;5064572;28;20055;-87
2023/05/16 00:16:36;;;;;;;40.17;26.90;;;;;;;12.30;100.00;100133.16;5081328;28;20443;-86
2023/05/16 00:19:03;;;;;;;40.13;27.15;;;;;;;12.41;100.00;100152.00;5064192;28;20441;-86
2023/05/16 00:21:35;;;;;;;42.20;27.42;;;;;;;12.42;100.00;100152.88;5082915;28;20033;-86
2023/05/16 00:24:03;;;;;;;39.25;26.88;;;;;;;12.39;100.00;100134.44;5067816;28;20048;-86
2023/05/16 00:26:33;;;;;;;39.97;27.00;;;;;;;12.44;100.00;100135.88;5063006;28;20048;-86
2023/05/16 00:29:02;;;;;;;39.97;26.73;;;;;;;12.56;100.00;100144.94;5063449;28;20108;-86
2023/05/16 00:31:49;;;;;;;38.95;26.25;;;;;;;12.57;100.00;100146.66;5064521;28;20049;-87
2023/05/16 00:34:28;;;;;;;35.83;25.40;;;;;;;12.38;100.00;100128.28;5065088;28;20040;-87
2023/05/16 00:36:58;;;;;;;38.20;26.75;;;;;;;12.22;100.00;100104.44;5063725;28;20063;-87
2023/05/16 00:39:36;;;;;;;39.40;26.60;;;;;;;12.51;100.00;100154.97;5081965;28;20045;-88
2023/05/16 00:42:04;;;;;;;39.92;25.98;;;;;;;12.46;100.00;100159.69;5081520;28;20083;-88
2023/05/16 00:44:42;;;;;;;35.30;24.35;;;;;;;12.11;100.00;100108.66;5063728;28;20072;-87
2023/05/16 00:47:09;;;;;;;38.22;25.42;;;;;;;12.34;100.00;100152.44;5061483;28;20045;-88
2023/05/16 00:49:35;;;;;;;38.60;26.30;;;;;;;12.30;100.00;100144.63;5045706;28;20127;-87
2023/05/16 00:52:02;;;;;;;37.92;24.92;;;;;;;12.38;100.00;100146.00;5061556;28;20051;-87
2023/05/16 00:54:32;;;;;;;40.00;26.35;;;;;;;12.38;100.00;100143.34;5061693;28;20040;-87
2023/05/16 00:57:00;;;;;;;34.53;25.20;;;;;;;12.26;100.00;100137.81;5045069;28;20092;-87
2023/05/16 00:59:27;;;;;;;34.63;24.58;;;;;;;12.38;100.00;100156.63;5039823;28;20045;-88
2023/05/16 01:02:10;;;;;;;37.25;24.13;;;;;;;12.30;100.00;100146.44;5042675;28;20065;-87
2023/05/16 01:05:01;;;;;;;34.75;23.75;;;;;;;12.28;100.00;100159.81;5055024;28;20044;-87
2023/05/16 01:07:28;;;;;;;33.88;24.02;;;;;;;12.25;100.00;100146.72;5053082;28;20080;-87
2023/05/16 01:09:56;;;;;;;33.47;23.52;;;;;;;12.16;100.00;100136.63;5043410;28;20061;-87
2023/05/16 01:12:40;;;;;;;34.90;24.70;;;;;;;12.26;100.00;100159.06;5046176;28;20042;-87
2023/05/16 01:15:24;;;;;;;32.03;23.35;;;;;;;12.20;100.00;100164.72;5010627;28;20053;-86
2023/05/16 01:17:55;;;;;;;36.72;24.77;;;;;;;12.14;100.00;100164.19;5042844;28;20049;-87
2023/05/16 01:20:47;;;;;;;35.30;24.65;;;;;;;12.08;100.00;100165.41;5051572;28;20076;-87
2023/05/16 01:23:42;;;;;;;34.97;24.98;;;;;;;12.04;100.00;100161.22;5052479;28;20048;-86
2023/05/16 01:26:17;;;;;;;36.70;23.15;;;;;;;12.04;100.00;100163.88;5049210;28;20060;-87
2023/05/16 01:28:46;;;;;;;33.88;23.23;;;;;;;11.88;100.00;100131.19;5041590;28;20061;-87
2023/05/16 01:31:15;;;;;;;32.15;23.27;;;;;;;12.09;100.00;100161.81;5057239;28;20051;-87
2023/05/16 01:33:42;;;;;;;33.92;23.88;;;;;;;12.09;100.00;100169.78;5037814;28;20045;-87
2023/05/16 01:36:25;;;;;;;32.28;22.15;;;;;;;12.01;100.00;100156.06;5039023;28;20075;-88
2023/05/16 01:39:02;;;;;;;30.45;21.13;;;;;;;12.06;100.00;100146.06;5042151;28;20045;-88
2023/05/16 01:41:56;;;;;;;28.08;21.10;;;;;;;12.26;100.00;100161.72;5037122;28;20045;-87
2023/05/16 01:44:35;;;;;;;29.13;20.40;;;;;;;12.32;100.00;100156.97;5036394;28;20049;-88
2023/05/16 01:47:11;;;;;;;29.05;20.83;;;;;;;12.32;100.00;100154.31;5036671;28;20136;-87
2023/05/16 01:49:45;;;;;;;29.70;20.60;;;;;;;12.23;100.00;100143.31;5037654;28;20042;-88
2023/05/16 01:52:29;;;;;;;26.73;19.10;;;;;;;12.14;100.00;100127.88;5037300;28;20047;-88
2023/05/16 01:54:59;;;;;;;27.10;19.13;;;;;;;12.22;100.00;100146.03;5036685;28;20053;-88
2023/05/16 01:57:31;;;;;;;30.33;19.77;;;;;;;12.25;100.00;100160.00;5040466;28;20107;-88
2023/05/16 01:59:59;;;;;;;25.48;19.10;;;;;;;12.27;100.00;100165.22;5045588;28;20050;-88
2023/05/16 02:02:35;;;;;;;24.75;18.25;;;;;;;12.24;100.00;100165.41;5046381;28;20045;-87
2023/05/16 02:05:03;;;;;;;25.38;19.17;;;;;;;12.20;100.00;100164.72;5030971;28;20037;-87
2023/05/16 02:07:30;;;;;;;23.85;18.85;;;;;;;12.18;100.00;100179.00;5050554;28;20053;-87
2023/05/16 02:09:59;;;;;;;24.17;17.23;;;;;;;12.13;100.00;100178.41;5050481;28;20034;-87
2023/05/16 02:12:26;;;;;;;24.63;17.70;;;;;;;12.09;100.00;100182.19;5029257;28;20049;-85
2023/05/16 02:15:08;;;;;;;19.90;16.88;;;;;;;12.06;100.00;100179.72;5032320;28;20107;-85
2023/05/16 02:17:35;;;;;;;22.92;17.25;;;;;;;12.05;100.00;100176.19;5045488;28;20105;-85
2023/05/16 02:20:05;;;;;;;23.77;17.75;;;;;;;12.04;100.00;100171.84;5045691;28;20105;-84
2023/05/16 02:22:32;;;;;;;23.98;17.67;;;;;;;12.02;100.00;100171.06;5046387;28;20045;-87
2023/05/16 02:25:00;;;;;;;26.80;19.85;;;;;;;11.89;100.00;100148.81;5049274;28;20037;-86
2023/05/16 02:27:26;;;;;;;26.20;19.98;;;;;;;12.04;100.00;100182.44;5061128;28;20037;-88
2023/05/16 02:29:53;;;;;;;29.17;20.05;;;;;;;12.02;100.00;100179.03;5060628;28;20048;-87
2023/05/16 02:32:20;;;;;;;29.23;19.95;;;;;;;11.98;100.00;100166.00;5056177;28;20100;-87
2023/05/16 02:34:48;;;;;;;29.23;22.02;;;;;;;11.94;100.00;100157.38;5054822;28;20061;-85
2023/05/16 02:37:15;;;;;;;33.17;22.83;;;;;;;12.00;100.00;100166.78;5050863;28;20052;-87
2023/05/16 02:39:42;;;;;;;30.38;21.75;;;;;;;11.98;100.00;100169.50;5050102;28;20057;-84
2023/05/16 02:42:09;;;;;;;30.35;21.65;;;;;;;11.92;100.00;100180.50;5046901;28;20045;-85
2023/05/16 02:44:36;;;;;;;31.02;22.30;;;;;;;11.90;100.00;100171.75;5032730;28;20115;-86
2023/05/16 02:47:04;;;;;;;28.67;21.30;;;;;;;11.82;100.00;100163.34;5054977;28;20049;-86
2023/05/16 02:49:31;;;;;;;29.73;22.83;;;;;;;11.85;100.00;100181.75;5049668;28;20049;-85
2023/05/16 02:51:59;;;;;;;30.55;22.73;;;;;;;11.81;100.00;100188.16;5051635;28;20064;-86
2023/05/16 02:54:26;;;;;;;30.02;22.23;;;;;;;11.79;100.00;100185.63;5050010;28;20080;-85
2023/05/16 02:56:52;;;;;;;31.35;21.70;;;;;;;11.82;100.00;100193.41;5051393;28;20054;-85
2023/05/16 02:59:26;;;;;;;28.63;20.98;;;;;;;11.69;100.00;100180.84;5052047;28;20132;-87
2023/05/16 03:01:53;;;;;;;34.67;23.63;;;;;;;11.81;100.00;100194.31;5048688;28;20068;-86
2023/05/16 03:04:21;;;;;;;33.80;23.83;;;;;;;11.83;100.00;100196.91;5045610;28;20046;-87
2023/05/16 03:06:50;;;;;;;33.03;23.50;;;;;;;11.67;100.00;100190.69;5046029;28;20045;-87
2023/05/16 03:09:16;;;;;;;30.60;22.25;;;;;;;11.73;100.00;100204.50;5042838;28;20037;-87
2023/05/16 03:11:44;;;;;;;31.90;22.45;;;;;;;11.69;100.00;100196.78;5045583;28;20174;-86
2023/05/16 03:14:24;;;;;;;32.97;23.45;;;;;;;11.73;100.00;100200.97;5047525;28;20046;-86
2023/05/16 03:16:52;;;;;;;34.05;23.52;;;;;;;11.71;100.00;100197.56;5045787;28;20049;-86
2023/05/16 03:19:26;;;;;;;35.08;23.10;;;;;;;11.68;100.00;100195.06;5042985;28;20049;-85
2023/05/16 03:21:54;;;;;;;33.70;23.50;;;;;;;11.66;100.00;100191.63;5044844;28;20072;-85
2023/05/16 03:24:21;;;;;;;32.40;22.70;;;;;;;11.49;100.00;100166.06;5040905;28;20501;-85
2023/05/16 03:26:48;;;;;;;36.03;24.45;;;;;;;11.43;100.00;100161.94;5039263;28;20053;-84
2023/05/16 03:29:15;;;;;;;32.63;22.55;;;;;;;11.64;100.00;100198.84;5038150;28;20504;-85
2023/05/16 03:31:44;;;;;;;34.58;23.13;;;;;;;11.54;100.00;100178.09;5034427;28;20053;-85
2023/05/16 03:34:15;;;;;;;36.47;23.20;;;;;;;11.48;100.00;100173.16;5021091;28;20046;-84
2023/05/16 03:36:42;;;;;;;32.03;22.35;;;;;;;11.53;100.00;100188.78;5021036;28;20153;-84
2023/05/16 03:39:18;;;;;;;40.03;25.60;;;;;;;11.48;100.00;100185.56;5021495;28;20052;-85
2023/05/16 03:41:44;;;;;;;36.60;24.13;;;;;;;11.64;100.00;100206.78;5019610;28;20156;-84
2023/05/16 03:44:11;;;;;;;35.60;23.25;;;;;;;11.54;100.00;100186.06;5036080;28;20315;-85
2023/05/16 03:46:38;;;;;;;34.65;24.48;;;;;;;11.69;100.00;100212.69;5020130;28;20046;-85
2023/05/16 03:49:08;;;;;;;32.10;22.25;;;;;;;11.75;100.00;100207.91;5037294;28;20068;-84
2023/05/16 03:51:39;;;;;;;35.38;23.65;;;;;;;11.82;100.00;100206.66;5018216;28;20054;-85
2023/05/16 03:54:08;;;;;;;33.60;22.30;;;;;;;11.79;100.00;100214.81;5022651;28;20155;-85
2023/05/16 03:56:35;;;;;;;34.83;22.42;;;;;;;11.79;100.00;100212.16;5046730;28;20501;-85
2023/05/16 03:59:06;;;;;;;35.15;22.85;;;;;;;11.87;100.00;100214.38;5039161;28;20049;-85
2023/05/16 04:01:33;;;;;;;35.80;23.50;;;;;;;11.89;100.00;100216.00;5056278;28;20053;-84
2023/05/16 04:04:00;;;;;;;33.45;21.77;;;;;;;11.41;100.00;100139.94;5055303;28;20053;-85
2023/05/16 04:06:28;;;;;;;33.00;22.27;;;;;;;11.86;100.00;100202.03;5040439;28;20050;-85
2023/05/16 04:08:56;;;;;;;31.30;20.77;;;;;;;11.99;100.00;100226.97;5040584;28;20052;-85
2023/05/16 04:11:22;;;;;;;33.03;21.15;;;;;;;12.04;100.00;100216.94;5042402;28;20049;-86
2023/05/16 04:13:53;;;;;;;30.60;20.23;;;;;;;11.86;100.00;100186.13;5026573;28;20068;-84
2023/05/16 04:16:19;;;;;;;33.95;20.33;;;;;;;12.18;100.00;100229.44;5045680;28;20080;-84
2023/05/16 04:18:46;;;;;;;32.13;20.35;;;;;;;12.20;100.00;100227.56;5046862;28;20042;-84
2023/05/16 04:21:15;;;;;;;32.08;20.80;;;;;;;12.23;100.00;100230.91;5041857;28;20109;-85
2023/05/16 04:23:43;;;;;;;32.85;20.85;;;;;;;12.21;100.00;100232.78;5040475;28;20058;-85
2023/05/16 04:26:14;;;;;;;29.83;20.13;;;;;;;12.21;100.00;100229.28;5042564;28;20045;-85
2023/05/16 04:28:49;;;;;;;33.08;21.33;;;;;;;12.28;100.00;100238.59;5046811;28;20045;-85
2023/05/16 04:31:21;;;;;;;34.90;21.10;;;;;;;12.29;100.00;100235.84;5054589;28;20046;-85
2023/05/16 04:33:56;;;;;;;32.65;20.90;;;;;;;12.33;100.00;100235.69;5045286;28;20041;-85
2023/05/16 04:36:31;;;;;;;30.55;20.33;;;;;;;12.38;100.00;100231.84;5039810;28;20060;-86
2023/05/16 04:38:59;;;;;;;29.75;18.38;;;;;;;12.45;100.00;100234.97;5041782;28;20105;-85
2023/05/16 04:41:29;;;;;;;27.42;19.63;;;;;;;12.38;100.00;100213.25;5040069;28;20071;-85
2023/05/16 04:43:56;;;;;;;30.13;19.20;;;;;;;12.59;100.00;100241.22;5024620;28;20462;-86
2023/05/16 04:46:22;;;;;;;32.15;20.85;;;;;;;12.48;100.00;100209.13;5040241;28;20072;-87
2023/05/16 04:48:58;;;;;;;31.25;19.73;;;;;;;12.66;100.00;100247.03;5042984;28;20163;-86
2023/05/16 04:51:40;;;;;;;29.27;18.50;;;;;;;12.71;100.00;100244.13;5040806;28;20046;-85
2023/05/16 04:54:09;;;;;;;24.30;18.42;;;;;;;12.84;100.00;100245.97;5043220;28;20072;-85
2023/05/16 04:56:36;;;;;;;26.40;18.05;;;;;;;12.77;100.00;100219.84;5056075;28;20040;-84
2023/05/16 04:59:03;;;;;;;26.20;18.50;;;;;;;12.87;100.00;100242.28;5084895;28;20071;-86
2023/05/16 05:01:33;;;;;;;;;;;;;;;12.86;100.00;100253.88;5079320;28;20071;-85
2023/05/16 05:04:01;;;;;;;27.15;17.73;;;;;;;12.83;100.00;100259.34;5096195;28;19974;-85
2023/05/16 05:06:37;;;;;;;24.25;15.82;;;;;;;12.73;100.00;100253.72;5086447;28;20048;-85
2023/05/16 05:09:05;;;;;;;26.73;15.80;;;;;;;12.75;100.00;100273.06;5083298;28;20048;-85
2023/05/16 05:11:46;;;;;;;17.65;11.27;;;;;;;12.68;100.00;100271.72;5080262;28;20465;-86
2023/05/16 05:14:12;;;;;;;17.23;12.70;;;;;;;12.53;100.00;100254.00;5081678;28;20131;-84
2023/05/16 05:16:41;;;;;;;15.75;10.27;;;;;;;12.50;100.00;100249.72;5085798;28;20096;-85
2023/05/16 05:19:08;;;;;;;10.93;7.88;;;;;;;12.46;100.00;100260.59;5066674;28;20051;-85
2023/05/16 05:21:35;;;;;;;9.10;6.88;;;;;;;12.50;100.00;100272.78;5080749;28;20045;-85
2023/05/16 05:24:10;;;;;;;8.73;6.35;;;;;;;12.41;100.00;100255.56;5082130;28;20105;-85
2023/05/16 05:26:41;;;;;;;;;;;;;;;12.57;100.00;100282.97;5081542;28;20048;-85
2023/05/16 05:29:12;;;;;;;7.10;4.80;;;;;;;12.58;100.00;100286.50;5081308;28;19921;-85
2023/05/16 05:31:40;;;;;;;7.82;5.05;;;;;;;12.55;100.00;100294.63;5080138;28;20078;-84
2023/05/16 05:34:07;;;;;;;6.32;4.28;;;;;;;12.45;100.00;100280.13;5080126;28;20044;-85
2023/05/16 05:36:34;;;;;;;5.65;4.22;;;;;;;12.37;100.00;100275.28;5079972;28;20037;-86
2023/05/16 05:39:12;;;;;;;6.20;3.92;;;;;;;12.56;100.00;100305.16;5067047;28;20044;-85
2023/05/16 05:41:44;;;;;;;7.65;4.30;;;;;;;12.55;100.00;100299.94;5081293;28;20044;-83
2023/05/16 05:44:29;;;;;;;6.05;4.15;;;;;;;12.49;100.00;100301.13;5076979;28;20416;-84
2023/05/16 05:47:08;;;;;;;4.55;3.90;;;;;;;12.23;100.00;100249.50;5081226;28;20077;-84
2023/05/16 05:50:06;;;;;;;6.28;4.15;;;;;;;12.57;100.00;100304.22;5080916;28;20131;-85
2023/05/16 05:52:48;;;;;;;5.82;4.15;;;;;;;12.58;100.00;100305.94;5080938;28;20084;-84
2023/05/16 05:55:22;;;;;;;5.93;4.50;;;;;;;12.53;100.00;100304.47;5080791;28;20045;-85
2023/05/16 05:58:09;;;;;;;5.75;3.88;;;;;;;12.55;100.00;100310.56;5061459;28;20156;-85
2023/05/16 06:00:36;;;;;;;5.87;3.50;;;;;;;12.52;100.00;100318.69;5082635;28;20044;-85
2023/05/16 06:03:03;;;;;;;6.70;3.40;;;;;;;12.50;100.00;100325.88;5083126;28;20139;-84
2023/05/16 06:05:30;;;;;;;4.57;3.40;;;;;;;12.47;100.00;100320.75;5081748;28;20052;-84
2023/05/16 06:08:08;;;;;;;3.78;2.63;;;;;;;12.63;100.00;100334.88;5084667;28;20049;-85
2023/05/16 06:10:36;;;;;;;2.47;2.15;;;;;;;12.64;100.00;100328.63;5096417;28;20036;-85
2023/05/16 06:13:03;;;;;;;2.60;2.05;;;;;;;12.63;100.00;100324.25;5113881;28;20044;-85
2023/05/16 06:19:04;;;;;;;2.05;1.80;;;;;;;12.71;100.00;100339.78;5097697;28;20044;-84
2023/05/16 06:21:39;;;;;;;2.00;1.80;;;;;;;12.80;100.00;100341.91;5096822;28;20063;-85
2023/05/16 06:24:06;;;;;;;1.98;1.67;;;;;;;12.59;100.00;100317.41;5096894;28;20041;-85
2023/05/16 06:26:33;;;;;;;2.85;1.50;;;;;;;12.61;100.00;100321.69;5079473;28;20094;-84
2023/05/16 06:29:00;;;;;;;2.45;1.70;;;;;;;12.87;100.00;100357.41;5097027;28;20036;-84
2023/05/16 06:31:42;;;;;;;2.13;1.60;;;;;;;12.81;100.00;100347.13;5060864;28;20080;-85
2023/05/16 06:34:13;;;;;;;1.55;1.40;;;;;;;12.82;100.00;100355.97;5075806;28;20093;-85
2023/05/16 06:37:04;;;;;;;2.58;1.40;;;;;;;12.59;100.00;100344.00;5062967;28;20136;-83
2023/05/16 06:39:33;;;;;;;1.48;1.33;;;;;;;12.68;100.00;100372.69;5046462;28;20059;-85
2023/05/16 06:42:03;;;;;;;1.80;1.70;;;;;;;12.54;100.00;100367.28;5044647;28;20049;-85
2023/05/16 06:44:34;;;;;;;3.60;1.50;;;;;;;12.41;100.00;100376.88;5061264;28;20036;-85
2023/05/16 06:47:03;;;;;;;2.60;1.40;;;;;;;12.33;100.00;100379.06;5047034;28;20071;-85
2023/05/16 06:49:30;;;;;;;2.42;1.27;;;;;;;12.22;100.00;100385.84;5045585;28;20045;-85
2023/05/16 06:51:59;;;;;;;2.17;1.50;;;;;;;12.02;100.00;100354.19;5046848;28;20132;-83
2023/05/16 06:54:27;;;;;;;2.05;1.60;;;;;;;12.11;100.00;100385.56;5043297;28;20108;-85
2023/05/16 06:57:08;;;;;;;2.78;1.27;;;;;;;12.17;100.00;100395.81;5047542;28;20049;-85
2023/05/16 06:59:41;;;;;;;3.28;1.30;;;;;;;12.20;100.00;100397.47;5045840;28;20076;-85
2023/05/16 07:02:23;;;;;;;2.92;1.10;;;;;;;11.98;100.00;100360.59;5059107;28;20067;-84
2023/05/16 07:05:06;;;;;;;2.55;1.15;;;;;;;12.04;100.00;100380.63;5096275;28;20072;-84
2023/05/16 07:07:34;;;;;;;1.48;0.90;;;;;;;12.13;100.00;100407.53;5073246;28;20075;-85
2023/05/16 07:10:15;;;;;;;0.98;0.70;;;;;;;12.09;100.00;100405.16;5094016;28;20048;-84
2023/05/16 07:13:05;;;;;;;2.88;0.90;;;;;;;12.04;100.00;100397.44;5091271;28;20098;-85
2023/05/16 07:15:47;;;;;;;1.67;0.85;;;;;;;12.14;100.00;100433.16;5073623;28;20063;-85
2023/05/16 07:18:17;;;;;;;0.98;0.75;;;;;;;12.03;100.00;100426.69;5082727;28;20086;-85
2023/05/16 07:20:48;;;;;;;0.80;0.65;;;;;;;12.04;100.00;100439.03;5071452;28;20036;-86
2023/05/16 07:23:46;;;;;;;1.42;1.10;;;;;;;12.04;100.00;100431.06;5085946;28;20086;-85
2023/05/16 07:26:48;;;;;;;0.90;0.60;;;;;;;12.05;100.00;100428.34;5080762;28;20048;-86
2023/05/16 07:32:10;;;;;;;0.40;0.40;;;;;;;12.11;100.00;100451.91;5071639;28;20127;-85
2023/05/16 07:34:50;;;;;;;0.40;0.40;;;;;;;12.04;100.00;100437.25;5084843;28;20450;-85
2023/05/16 07:37:19;;;;;;;2.42;0.40;;;;;;;12.00;100.00;100435.66;5067331;28;20041;-85
2023/05/16 07:39:47;;;;;;;0.50;0.30;;;;;;;12.01;100.00;100461.28;5069529;28;20451;-84
2023/05/16 07:42:16;;;;;;;0.30;0.30;;;;;;;11.79;100.00;100420.88;5067195;28;20048;-85
2023/05/16 07:45:04;;;;;;;1.25;0.57;;;;;;;11.70;100.00;100423.97;5069885;28;20079;-85
2023/05/16 07:47:35;;;;;;;0.60;0.40;;;;;;;11.58;100.00;100436.91;5071589;28;20052;-82
2023/05/16 07:50:05;;;;;;;0.38;0.30;;;;;;;11.74;100.00;100465.31;5068343;28;20112;-84
2023/05/16 07:52:49;;;;;;;0.30;0.30;;;;;;;11.76;100.00;100467.00;5084255;28;20392;-84
2023/05/16 07:55:21;;;;;;;0.57;0.40;;;;;;;11.73;100.00;100479.50;5069380;28;20041;-83
2023/05/16 07:57:49;;;;;;;0.20;0.20;;;;;;;11.70;100.00;100490.28;5067992;28;20145;-84
2023/05/16 08:00:23;;;;;;;0.30;0.30;;;;;;;11.58;100.00;100484.66;5045249;28;20045;-84
2023/05/16 08:03:18;;;;;;;0.20;0.20;;;;;;;11.54;100.00;100500.78;5046610;28;20553;-86
2023/05/16 08:05:50;;;;;;;0.95;0.40;;;;;;;11.49;100.00;100505.47;5028905;28;20049;-83
2023/05/16 08:08:55;;;;;;;1.02;0.60;;;;;;;11.32;100.00;100493.03;5045663;28;20045;-84
2023/05/16 08:11:31;;;;;;;0.90;0.30;;;;;;;11.35;100.00;100511.44;5044692;28;20049;-84
2023/05/16 08:14:15;;;;;;;1.40;0.40;;;;;;;11.32;100.00;100519.56;5030586;28;20043;-84
2023/05/16 08:16:51;;;;;;;1.00;0.30;;;;;;;11.32;100.00;100508.09;5047172;28;20136;-84
2023/05/16 08:22:58;;;;;;;0.30;0.30;;;;;;;11.18;100.00;100500.75;5045398;28;20037;-84
2023/05/16 08:25:34;;;;;;;1.02;0.35;;;;;;;11.35;100.00;100534.44;5044923;28;20056;-84
2023/05/16 08:28:01;;;;;;;1.45;0.40;;;;;;;11.34;100.00;100538.88;5042327;28;20187;-83
2023/05/16 08:30:29;;;;;;;0.40;0.40;;;;;;;11.17;100.00;100499.09;5057964;28;20068;-85
2023/05/16 08:33:03;;;;;;;3.60;0.70;;;;;;;11.37;100.00;100533.44;5041337;28;20131;-85
2023/05/16 08:35:43;;;;;;;0.63;0.40;;;;;;;11.21;100.00;100516.53;5056405;28;20045;-84
2023/05/16 08:38:14;;;;;;;1.25;0.40;;;;;;;11.22;100.00;100526.19;5042920;28;20049;-85
2023/05/16 08:40:44;;;;;;;1.38;0.47;;;;;;;11.27;100.00;100518.91;5057844;28;20113;-85
2023/05/16 08:43:11;;;;;;;0.73;0.40;;;;;;;11.23;100.00;100514.66;5051370;28;20533;-84
2023/05/16 08:45:44;;;;;;;0.32;0.32;;;;;;;11.23;100.00;100525.28;5043299;28;20073;-85
2023/05/16 08:48:23;;;;;;;0.57;0.38;;;;;;;11.40;100.00;100549.19;5045833;28;20109;-84
2023/05/16 08:51:01;;;;;;;2.95;0.40;;;;;;;11.46;100.00;100551.56;5042448;28;20097;-86
2023/05/16 08:53:43;;;;;;;0.77;0.43;;;;;;;11.37;100.00;100522.81;5041311;28;20466;-86
2023/05/16 08:56:35;;;;;;;;;;;;;;;11.66;100.00;100547.06;5048304;28;20041;-85
2023/05/16 08:59:07;;;;;;;0.70;0.52;;;;;;;11.46;100.00;100519.75;5086584;28;19923;-85
2023/05/16 09:01:48;;;;;;;1.30;0.60;;;;;;;11.72;100.00;100552.06;5087276;28;20069;-86
2023/05/16 09:04:30;;;;;;;0.70;0.50;;;;;;;11.57;100.00;100524.50;5067267;28;20108;-85
2023/05/16 09:07:04;;;;;;;0.47;0.43;;;;;;;11.63;100.00;100534.84;5082097;28;20079;-86
2023/05/16 09:09:31;;;;;;;1.13;0.85;;;;;;;11.73;100.00;100551.16;5064865;28;20112;-86
2023/05/16 09:11:59;;;;;;;0.93;0.70;;;;;;;11.77;100.00;100550.09;5080967;28;20461;-85
2023/05/16 09:14:41;;;;;;;3.85;1.00;;;;;;;11.78;100.00;100557.97;5065518;28;20533;-85
2023/05/16 09:17:26;;;;;;;1.83;0.80;;;;;;;11.52;100.00;100506.16;5066797;28;20080;-84
2023/05/16 09:20:18;;;;;;;1.88;0.85;;;;;;;12.08;100.00;100552.94;5084095;28;20062;-85
2023/05/16 09:22:57;;;;;;;2.17;0.77;;;;;;;12.16;100.00;100510.06;5067002;28;20064;-86
2023/05/16 09:25:27;;;;;;;2.65;0.80;;;;;;;12.51;100.00;100527.66;5081510;28;20053;-83
2023/05/16 09:28:00;;;;;;;2.22;0.70;;;;;;;12.74;100.00;100539.75;5080742;28;20131;-83
2023/05/16 09:30:35;;;;;;;2.17;0.80;;;;;;;12.74;100.00;100522.94;5081134;28;20044;-84
2023/05/16 09:33:06;;;;;;;1.95;1.00;;;;;;;12.71;100.00;100505.38;5081633;28;20080;-84
2023/05/16 09:35:36;;;;;;;2.05;0.70;;;;;;;12.85;100.00;100547.13;5081239;28;20047;-84
2023/05/16 09:38:15;;;;;;;2.23;0.80;;;;;;;12.79;100.00;100550.09;5082457;28;20112;-84
2023/05/16 09:40:43;;;;;;;3.45;0.88;;;;;;;12.48;100.00;100526.97;5069102;28;20463;-84
2023/05/16 09:43:15;;;;;;;1.55;0.77;;;;;;;12.59;100.00;100554.69;5064075;28;20043;-85
2023/05/16 09:45:49;;;;;;;2.55;1.00;;;;;;;12.71;100.00;100550.53;5081382;28;20090;-84
2023/05/16 09:48:19;;;;;;;0.73;0.73;;;;;;;12.69;100.00;100522.31;5094998;28;20032;-85
2023/05/16 09:50:55;;;;;;;2.83;1.20;;;;;;;12.98;100.00;100556.16;5068724;28;20127;-85
2023/05/16 09:53:33;;;;;;;3.33;1.00;;;;;;;12.99;100.00;100553.41;5066668;28;20041;-85
2023/05/16 09:56:14;;;;;;;1.23;0.95;;;;;;;12.81;99.75;100526.97;5051550;28;20558;-85
2023/05/16 09:58:43;;;;;;;2.58;1.02;;;;;;;12.85;99.66;100534.69;5064538;28;20347;-84
2023/05/16 10:01:17;;;;;;;3.97;1.23;;;;;;;13.06;98.20;100550.44;5085505;28;20040;-85
2023/05/16 10:03:47;;;;;;;3.70;1.40;;;;;;;13.23;95.44;100553.03;5074593;28;20049;-83
2023/05/16 10:06:18;;;;;;;3.83;1.17;;;;;;;13.27;88.32;100562.56;5091847;28;20112;-84
2023/05/16 10:08:59;;;;;;;1.88;0.93;;;;;;;13.08;90.48;100564.47;5078388;28;20071;-83
2023/05/16 10:11:30;;;;;;;3.00;1.27;;;;;;;12.80;92.02;100535.88;5092602;28;20139;-85
2023/05/16 10:14:02;;;;;;;7.53;1.38;;;;;;;12.77;94.11;100552.84;5059515;28;20041;-85
2023/05/16 10:17:14;;;;;;;4.07;1.60;;;;;;;12.66;97.09;100563.19;5143376;27;20715;-85
2023/05/16 10:20:04;;;;;;;3.67;1.33;;;;;;;12.40;98.83;100563.72;5108467;28;20059;-85
2023/05/16 10:22:41;;;;;;;3.10;1.40;;;;;;;12.20;98.40;100556.75;5103121;28;20048;-84
2023/05/16 10:25:32;;;;;;;5.50;1.40;;;;;;;12.25;100.00;100557.41;5102711;28;20078;-84
2023/05/16 10:28:18;;;;;;;5.60;1.40;;;;;;;12.47;96.14;100549.16;5116523;28;20055;-85
2023/05/16 10:31:05;;;;;;;4.65;1.60;;;;;;;12.78;92.53;100562.53;5096174;28;20048;-85
2023/05/16 10:33:49;;;;;;;4.20;1.45;;;;;;;13.00;89.81;100559.59;5099865;28;20059;-85
2023/05/16 10:36:20;;;;;;;6.00;1.38;;;;;;;13.14;89.74;100561.50;5117744;28;20078;-85
2023/05/16 10:39:01;;;;;;;;;;;;;;;13.37;86.72;100569.09;5098552;28;20044;-85
2023/05/16 10:41:34;;;;;;;5.22;1.67;;;;;;;13.51;81.64;100563.00;5116004;28;19926;-85
2023/05/16 10:44:16;;;;;;;6.70;1.83;;;;;;;13.48;82.01;100555.19;5081122;28;20040;-85
2023/05/16 10:47:12;;;;;;;6.45;1.70;;;;;;;13.55;81.30;100557.41;5118845;28;20046;-84
2023/05/16 10:50:02;;;;;;;5.75;1.70;;;;;;;13.45;79.78;100556.22;5149106;28;20039;-83
2023/05/16 10:52:40;;;;;;;5.82;1.65;;;;;;;13.15;79.18;100516.25;5148542;28;20073;-84
2023/05/16 10:55:57;;;;;;;8.57;2.03;;;;;;;13.48;80.39;100545.41;5125669;28;20054;-85
2023/05/16 10:58:41;;;;;;;7.95;1.60;;;;;;;13.63;76.48;100560.50;5141290;28;20104;-85
2023/05/16 11:01:56;;;;;;;4.72;2.22;;;;;;;13.61;74.74;100569.53;5087732;28;20106;-87
2023/05/16 11:04:50;;;;;;;6.97;1.85;;;;;;;13.44;76.53;100543.88;5082255;28;20040;-84
2023/05/16 11:07:23;;;;;;;6.57;1.75;;;;;;;13.52;73.77;100557.59;5097947;28;20106;-85
2023/05/16 11:10:15;;;;;;;6.50;1.90;;;;;;;13.66;72.24;100570.97;5097437;28;20206;-84
2023/05/16 11:12:49;;;;;;;5.22;1.60;;;;;;;13.66;70.53;100570.13;5098943;28;20103;-85
2023/05/16 11:15:33;;;;;;;4.77;1.40;;;;;;;13.70;69.61;100572.50;5094245;28;20052;-85
2023/05/16 11:18:25;;;;;;;4.57;1.20;;;;;;;13.76;61.36;100576.63;5064146;28;20052;-86
2023/05/16 11:21:16;;;;;;;;;;;;;;;13.59;61.05;100582.91;5068572;28;20039;-85
2023/05/16 11:24:07;;;;;;;;;;;;;;;13.67;60.41;100578.03;5078803;28;20342;-86
2023/05/16 11:26:35;;;;;;;7.35;1.33;;;;;;;13.71;59.29;100578.69;5078889;28;19952;-86
2023/05/16 11:29:05;;;;;;;;;;;;;;;13.75;58.78;100572.25;5072562;28;20052;-85
2023/05/16 11:31:45;;;;;;;7.47;1.42;;;;;;;13.97;59.46;100585.19;5085554;28;19920;-87
2023/05/16 11:34:54;;;;;;;4.80;1.20;;;;;;;14.17;57.42;100576.88;5097046;28;20044;-86
2023/05/16 11:48:29;;;;;;;5.50;1.42;;;;;;;14.76;55.97;100569.81;6193301;22;1933895;-84
2023/05/16 11:51:21;;;;;;;5.57;1.20;;;;;;;14.83;56.44;100571.13;6249765;23;20030;-85
2023/05/16 11:53:53;;;;;;;3.97;0.95;;;;;;;14.90;55.82;100566.28;6248400;23;20019;-85
2023/05/16 11:56:26;;;;;;;8.35;1.30;;;;;;;14.99;56.58;100577.22;6245962;23;20016;-85
2023/05/16 11:59:25;;;;;;;5.10;1.30;;;;;;;15.20;57.05;100574.19;6269614;23;20050;-86
2023/05/16 12:02:33;;;;;;;5.65;1.30;;;;;;;15.26;56.10;100565.81;6247561;23;20026;-84
2023/05/16 12:05:27;;;;;;;6.65;1.50;;;;;;;15.47;55.55;100551.06;6271094;23;20066;-84
2023/05/16 12:08:20;;;;;;;5.13;1.33;;;;;;;15.69;54.17;100566.59;6232080;23;20087;-86